Time;durP1;ratioP1;P1;durP2;ratioP2;P2;SDS_P1;SDS_P2;PMS_P1;PMS_P2;Temp;Humidity;BMP_temperature;BMP_pressure;BME280_temperature;BME280_humidity;BME280_pressure;Samples;Min_cycle;Max_cycle;Signal;HPM_P1;HPM_P2
2019/08/09 05:19:36;;;;;;;7.4;6.65;;;;;;;13.81;100;95055.97;;;;
2019/08/09 05:20:37;;;;;;;7.4;6.65;;;;;;;13.81;100;95055.97;;;;
2019/08/09 05:21:38;;;;;;;7.4;6.65;;;;;;;13.81;100;95055.97;;;;
2019/08/09 05:22:39;;;;;;;7.4;6.65;;;;;;;13.81;100;95055.97;;;;
2019/08/09 05:23:40;;;;;;;7.4;6.65;;;;;;;13.81;100;95055.97;;;;
2019/08/09 05:24:41;;;;;;;7.4;6.65;;;;;;;13.81;100;95055.97;;;;
2019/08/09 05:25:42;;;;;;;7.4;6.65;;;;;;;13.81;100;95055.97;;;;
2019/08/09 05:26:43;;;;;;;7.4;6.65;;;;;;;13.81;100;95055.97;;;;
2019/08/09 05:27:45;;;;;;;7.4;6.65;;;;;;;13.81;100;95055.97;;;;
2019/08/09 05:28:46;;;;;;;7.4;6.65;;;;;;;13.81;100;95055.97;;;;
2019/08/09 05:29:47;;;;;;;7.4;6.65;;;;;;;13.81;100;95055.97;;;;
2019/08/09 05:30:48;;;;;;;7.349999;6.600001;;;;;;;14.19;100;95047.52;;;;
2019/08/09 05:31:49;;;;;;;7.349999;6.600001;;;;;;;14.19;100;95047.52;;;;
2019/08/09 05:32:50;;;;;;;7.349999;6.600001;;;;;;;14.19;100;95047.52;;;;
2019/08/09 05:33:51;;;;;;;7.349999;6.600001;;;;;;;14.19;100;95047.52;;;;
2019/08/09 05:34:52;;;;;;;7.349999;6.600001;;;;;;;14.19;100;95047.52;;;;
2019/08/09 05:35:53;;;;;;;7.349999;6.600001;;;;;;;14.19;100;95047.52;;;;
2019/08/09 05:36:55;;;;;;;7.349999;6.600001;;;;;;;14.19;100;95047.52;;;;
2019/08/09 05:37:56;;;;;;;7.349999;6.600001;;;;;;;14.19;100;95047.52;;;;
2019/08/09 05:38:57;;;;;;;7.349999;6.600001;;;;;;;14.19;100;95047.52;;;;
2019/08/09 05:39:58;;;;;;;7.349999;6.600001;;;;;;;14.19;100;95047.52;;;;
2019/08/09 05:40:59;;;;;;;8.249998;6.5;;;;;;;14.63;100;95041.49;;;;
2019/08/09 05:42:00;;;;;;;8.249998;6.5;;;;;;;14.63;100;95041.49;;;;
2019/08/09 05:43:01;;;;;;;8.249998;6.5;;;;;;;14.63;100;95041.49;;;;
2019/08/09 05:44:03;;;;;;;8.249998;6.5;;;;;;;14.63;100;95041.49;;;;
2019/08/09 05:45:04;;;;;;;8.249998;6.5;;;;;;;14.63;100;95041.49;;;;
2019/08/09 05:46:07;;;;;;;8.249998;6.5;;;;;;;14.63;100;95041.49;;;;
2019/08/09 05:47:11;;;;;;;8.249998;6.5;;;;;;;14.63;100;95041.49;;;;
2019/08/09 05:48:12;;;;;;;8.249998;6.5;;;;;;;14.63;100;95041.49;;;;
2019/08/09 05:49:13;;;;;;;8.249998;6.5;;;;;;;14.63;100;95041.49;;;;
2019/08/09 05:50:14;;;;;;;8.249998;6.5;;;;;;;14.63;100;95041.49;;;;
2019/08/09 05:51:16;;;;;;;7.35;6.550001;;;;;;;15.26;100;95039.43;;;;
2019/08/09 05:52:17;;;;;;;7.35;6.550001;;;;;;;15.26;100;95039.43;;;;
2019/08/09 05:53:19;;;;;;;7.35;6.550001;;;;;;;15.26;100;95039.43;;;;
2019/08/09 05:54:20;;;;;;;7.35;6.550001;;;;;;;15.26;100;95039.43;;;;
2019/08/09 05:55:21;;;;;;;7.35;6.550001;;;;;;;15.26;100;95039.43;;;;
2019/08/09 05:56:23;;;;;;;7.35;6.550001;;;;;;;15.26;100;95039.43;;;;
2019/08/09 05:57:24;;;;;;;7.35;6.550001;;;;;;;15.26;100;95039.43;;;;
2019/08/09 05:58:25;;;;;;;7.35;6.550001;;;;;;;15.26;100;95039.43;;;;
2019/08/09 05:59:26;;;;;;;7.35;6.550001;;;;;;;15.26;100;95039.43;;;;
2019/08/09 06:00:27;;;;;;;7.35;6.550001;;;;;;;15.26;100;95039.43;;;;
2019/08/09 06:01:40;;;;;;;7.35;6.550001;;;;;;;15.26;100;95039.43;;;;
2019/08/09 06:02:41;;;;;;;6.65;5.45;;;;;;;16.03;100;95036.45;;;;
2019/08/09 06:03:42;;;;;;;6.65;5.45;;;;;;;16.03;100;95036.45;;;;
2019/08/09 06:04:43;;;;;;;6.65;5.45;;;;;;;16.03;100;95036.45;;;;
2019/08/09 06:05:44;;;;;;;6.65;5.45;;;;;;;16.03;100;95036.45;;;;
2019/08/09 06:06:46;;;;;;;6.65;5.45;;;;;;;16.03;100;95036.45;;;;
2019/08/09 06:07:48;;;;;;;6.65;5.45;;;;;;;16.03;100;95036.45;;;;
2019/08/09 06:08:51;;;;;;;6.65;5.45;;;;;;;16.03;100;95036.45;;;;
2019/08/09 06:09:52;;;;;;;6.65;5.45;;;;;;;16.03;100;95036.45;;;;
2019/08/09 06:10:54;;;;;;;6.65;5.45;;;;;;;16.03;100;95036.45;;;;
2019/08/09 06:11:55;;;;;;;6.65;5.45;;;;;;;16.03;100;95036.45;;;;
2019/08/09 06:12:56;;;;;;;6.75;5.05;;;;;;;16.96;100;95030.5;;;;
2019/08/09 06:13:57;;;;;;;6.75;5.05;;;;;;;16.96;100;95030.5;;;;
2019/08/09 06:14:58;;;;;;;6.75;5.05;;;;;;;16.96;100;95030.5;;;;
2019/08/09 06:15:59;;;;;;;6.75;5.05;;;;;;;16.96;100;95030.5;;;;
2019/08/09 06:17:01;;;;;;;6.75;5.05;;;;;;;16.96;100;95030.5;;;;
2019/08/09 06:18:03;;;;;;;6.75;5.05;;;;;;;16.96;100;95030.5;;;;
2019/08/09 06:19:04;;;;;;;6.75;5.05;;;;;;;16.96;100;95030.5;;;;
2019/08/09 06:20:07;;;;;;;6.75;5.05;;;;;;;16.96;100;95030.5;;;;
2019/08/09 06:21:09;;;;;;;6.75;5.05;;;;;;;16.96;100;95030.5;;;;
2019/08/09 06:22:11;;;;;;;6.75;5.05;;;;;;;16.96;100;95030.5;;;;
2019/08/09 06:23:12;;;;;;;6;4.8;;;;;;;17.79;100;95035.97;;;;
2019/08/09 06:24:13;;;;;;;6;4.8;;;;;;;17.79;100;95035.97;;;;
2019/08/09 06:25:15;;;;;;;6;4.8;;;;;;;17.79;100;95035.97;;;;
2019/08/09 06:26:17;;;;;;;6;4.8;;;;;;;17.79;100;95035.97;;;;
2019/08/09 06:27:19;;;;;;;6;4.8;;;;;;;17.79;100;95035.97;;;;
2019/08/09 06:28:21;;;;;;;6;4.8;;;;;;;17.79;100;95035.97;;;;
2019/08/09 06:29:22;;;;;;;6;4.8;;;;;;;17.79;100;95035.97;;;;
2019/08/09 06:30:24;;;;;;;6;4.8;;;;;;;17.79;100;95035.97;;;;
2019/08/09 06:31:33;;;;;;;6;4.8;;;;;;;17.79;100;95035.97;;;;
2019/08/09 06:32:34;;;;;;;6;4.8;;;;;;;17.79;100;95035.97;;;;
2019/08/09 06:33:35;;;;;;;4.9;4.4;;;;;;;18.7;99.85645;95041.72;;;;
2019/08/09 06:34:37;;;;;;;4.9;4.4;;;;;;;18.7;99.85645;95041.72;;;;
2019/08/09 06:35:38;;;;;;;4.9;4.4;;;;;;;18.7;99.85645;95041.72;;;;
2019/08/09 06:36:39;;;;;;;4.9;4.4;;;;;;;18.7;99.85645;95041.72;;;;
2019/08/09 06:37:40;;;;;;;4.9;4.4;;;;;;;18.7;99.85645;95041.72;;;;
2019/08/09 06:38:41;;;;;;;4.9;4.4;;;;;;;18.7;99.85645;95041.72;;;;
2019/08/09 06:39:43;;;;;;;4.9;4.4;;;;;;;18.7;99.85645;95041.72;;;;
2019/08/09 06:40:44;;;;;;;4.9;4.4;;;;;;;18.7;99.85645;95041.72;;;;
2019/08/09 06:42:18;;;;;;;4.9;4.4;;;;;;;18.7;99.85645;95041.72;;;;
2019/08/09 06:43:19;;;;;;;4.9;4.4;;;;;;;18.7;99.85645;95041.72;;;;
2019/08/09 06:44:21;;;;;;;5.3;4.5;;;;;;;20.38;96.78809;95043.83;;;;
2019/08/09 06:45:22;;;;;;;5.3;4.5;;;;;;;20.38;96.78809;95043.83;;;;
2019/08/09 06:46:23;;;;;;;5.3;4.5;;;;;;;20.38;96.78809;95043.83;;;;
2019/08/09 06:47:27;;;;;;;5.3;4.5;;;;;;;20.38;96.78809;95043.83;;;;
2019/08/09 06:48:28;;;;;;;5.3;4.5;;;;;;;20.38;96.78809;95043.83;;;;
2019/08/09 06:49:29;;;;;;;5.3;4.5;;;;;;;20.38;96.78809;95043.83;;;;
2019/08/09 06:50:30;;;;;;;5.3;4.5;;;;;;;20.38;96.78809;95043.83;;;;
2019/08/09 06:51:31;;;;;;;5.3;4.5;;;;;;;20.38;96.78809;95043.83;;;;
2019/08/09 06:52:33;;;;;;;5.3;4.5;;;;;;;20.38;96.78809;95043.83;;;;
2019/08/09 06:53:34;;;;;;;5.3;4.5;;;;;;;20.38;96.78809;95043.83;;;;
2019/08/09 06:54:35;;;;;;;5.3;4.5;;;;;;;20.38;96.78809;95043.83;;;;
2019/08/09 06:55:36;;;;;;;4.9;4.4;;;;;;;22.6;92.53516;95044.95;;;;
2019/08/09 06:56:38;;;;;;;4.9;4.4;;;;;;;22.6;92.53516;95044.95;;;;
2019/08/09 06:57:39;;;;;;;4.9;4.4;;;;;;;22.6;92.53516;95044.95;;;;
2019/08/09 06:58:40;;;;;;;4.9;4.4;;;;;;;22.6;92.53516;95044.95;;;;
2019/08/09 06:59:41;;;;;;;4.9;4.4;;;;;;;22.6;92.53516;95044.95;;;;
2019/08/09 07:00:42;;;;;;;4.9;4.4;;;;;;;22.6;92.53516;95044.95;;;;
2019/08/09 07:02:20;;;;;;;4.9;4.4;;;;;;;22.6;92.53516;95044.95;;;;
2019/08/09 07:03:21;;;;;;;4.9;4.4;;;;;;;22.6;92.53516;95044.95;;;;
2019/08/09 07:04:22;;;;;;;4.9;4.4;;;;;;;22.6;92.53516;95044.95;;;;
2019/08/09 07:05:23;;;;;;;4.9;4.4;;;;;;;22.6;92.53516;95044.95;;;;
2019/08/09 07:06:24;;;;;;;4.75;4.099999;;;;;;;24.45;88.16699;95047.64;;;;
2019/08/09 07:07:29;;;;;;;4.75;4.099999;;;;;;;24.45;88.16699;95047.64;;;;
2019/08/09 07:08:30;;;;;;;4.75;4.099999;;;;;;;24.45;88.16699;95047.64;;;;
2019/08/09 07:09:31;;;;;;;4.75;4.099999;;;;;;;24.45;88.16699;95047.64;;;;
2019/08/09 07:10:33;;;;;;;4.75;4.099999;;;;;;;24.45;88.16699;95047.64;;;;
2019/08/09 07:11:34;;;;;;;4.75;4.099999;;;;;;;24.45;88.16699;95047.64;;;;
2019/08/09 07:12:35;;;;;;;4.75;4.099999;;;;;;;24.45;88.16699;95047.64;;;;
2019/08/09 07:13:37;;;;;;;4.75;4.099999;;;;;;;24.45;88.16699;95047.64;;;;
2019/08/09 07:14:38;;;;;;;4.75;4.099999;;;;;;;24.45;88.16699;95047.64;;;;
2019/08/09 07:15:39;;;;;;;4.75;4.099999;;;;;;;24.45;88.16699;95047.64;;;;
2019/08/09 07:16:40;;;;;;;4.55;4.1;;;;;;;25.9;84.26367;95039.78;;;;
2019/08/09 07:17:41;;;;;;;4.55;4.1;;;;;;;25.9;84.26367;95039.78;;;;
2019/08/09 07:18:42;;;;;;;4.55;4.1;;;;;;;25.9;84.26367;95039.78;;;;
2019/08/09 07:19:44;;;;;;;4.55;4.1;;;;;;;25.9;84.26367;95039.78;;;;
2019/08/09 07:20:45;;;;;;;4.55;4.1;;;;;;;25.9;84.26367;95039.78;;;;
2019/08/09 07:21:46;;;;;;;4.55;4.1;;;;;;;25.9;84.26367;95039.78;;;;
2019/08/09 07:22:47;;;;;;;4.55;4.1;;;;;;;25.9;84.26367;95039.78;;;;
2019/08/09 07:23:48;;;;;;;4.55;4.1;;;;;;;25.9;84.26367;95039.78;;;;
2019/08/09 07:24:50;;;;;;;4.55;4.1;;;;;;;25.9;84.26367;95039.78;;;;
2019/08/09 07:25:51;;;;;;;4.55;4.1;;;;;;;25.9;84.26367;95039.78;;;;
2019/08/09 07:26:52;;;;;;;4.4;4;;;;;;;26.98;80.49023;95037.42;;;;
2019/08/09 07:27:53;;;;;;;4.4;4;;;;;;;26.98;80.49023;95037.42;;;;
2019/08/09 07:28:54;;;;;;;4.4;4;;;;;;;26.98;80.49023;95037.42;;;;
2019/08/09 07:29:55;;;;;;;4.4;4;;;;;;;26.98;80.49023;95037.42;;;;
2019/08/09 07:30:56;;;;;;;4.4;4;;;;;;;26.98;80.49023;95037.42;;;;
2019/08/09 07:31:58;;;;;;;4.4;4;;;;;;;26.98;80.49023;95037.42;;;;
2019/08/09 07:33:00;;;;;;;4.4;4;;;;;;;26.98;80.49023;95037.42;;;;
2019/08/09 07:34:01;;;;;;;4.4;4;;;;;;;26.98;80.49023;95037.42;;;;
2019/08/09 07:35:02;;;;;;;4.4;4;;;;;;;26.98;80.49023;95037.42;;;;
2019/08/09 07:36:04;;;;;;;4.4;4;;;;;;;26.98;80.49023;95037.42;;;;
2019/08/09 07:37:06;;;;;;;4.4;4;;;;;;;26.98;80.49023;95037.42;;;;
2019/08/09 07:38:07;;;;;;;4.949999;3.85;;;;;;;27.74;75.10059;95022.65;;;;
2019/08/09 07:39:08;;;;;;;4.949999;3.85;;;;;;;27.74;75.10059;95022.65;;;;
2019/08/09 07:40:11;;;;;;;4.949999;3.85;;;;;;;27.74;75.10059;95022.65;;;;
2019/08/09 07:41:12;;;;;;;4.949999;3.85;;;;;;;27.74;75.10059;95022.65;;;;
2019/08/09 07:42:14;;;;;;;4.949999;3.85;;;;;;;27.74;75.10059;95022.65;;;;
2019/08/09 07:43:15;;;;;;;4.949999;3.85;;;;;;;27.74;75.10059;95022.65;;;;
2019/08/09 07:44:16;;;;;;;4.949999;3.85;;;;;;;27.74;75.10059;95022.65;;;;
2019/08/09 07:45:17;;;;;;;4.949999;3.85;;;;;;;27.74;75.10059;95022.65;;;;
2019/08/09 07:46:19;;;;;;;4.949999;3.85;;;;;;;27.74;75.10059;95022.65;;;;
2019/08/09 07:47:20;;;;;;;4.949999;3.85;;;;;;;27.74;75.10059;95022.65;;;;
2019/08/09 07:48:21;;;;;;;4.55;4.1;;;;;;;28.24;72.08594;95025.37;;;;
2019/08/09 07:49:22;;;;;;;4.55;4.1;;;;;;;28.24;72.08594;95025.37;;;;
2019/08/09 07:50:23;;;;;;;4.55;4.1;;;;;;;28.24;72.08594;95025.37;;;;
2019/08/09 07:51:45;;;;;;;4.55;4.1;;;;;;;28.24;72.08594;95025.37;;;;
2019/08/09 07:52:46;;;;;;;4.55;4.1;;;;;;;28.24;72.08594;95025.37;;;;
2019/08/09 07:53:47;;;;;;;4.55;4.1;;;;;;;28.24;72.08594;95025.37;;;;
2019/08/09 07:54:49;;;;;;;4.55;4.1;;;;;;;28.24;72.08594;95025.37;;;;
2019/08/09 07:55:50;;;;;;;4.55;4.1;;;;;;;28.24;72.08594;95025.37;;;;
2019/08/09 07:56:51;;;;;;;4.55;4.1;;;;;;;28.24;72.08594;95025.37;;;;
2019/08/09 07:57:52;;;;;;;4.55;4.1;;;;;;;28.24;72.08594;95025.37;;;;
2019/08/09 07:58:53;;;;;;;5.15;4.4;;;;;;;28.58;69.70703;95012.44;;;;
2019/08/09 07:59:55;;;;;;;5.15;4.4;;;;;;;28.58;69.70703;95012.44;;;;
2019/08/09 08:00:56;;;;;;;5.15;4.4;;;;;;;28.58;69.70703;95012.44;;;;
2019/08/09 08:02:15;;;;;;;5.15;4.4;;;;;;;28.58;69.70703;95012.44;;;;
2019/08/09 08:03:16;;;;;;;5.15;4.4;;;;;;;28.58;69.70703;95012.44;;;;
2019/08/09 08:04:17;;;;;;;5.15;4.4;;;;;;;28.58;69.70703;95012.44;;;;
2019/08/09 08:05:18;;;;;;;5.15;4.4;;;;;;;28.58;69.70703;95012.44;;;;
2019/08/09 08:06:25;;;;;;;5.15;4.4;;;;;;;28.58;69.70703;95012.44;;;;
2019/08/09 08:07:30;;;;;;;5.15;4.4;;;;;;;28.58;69.70703;95012.44;;;;
2019/08/09 08:08:32;;;;;;;5.15;4.4;;;;;;;28.58;69.70703;95012.44;;;;
2019/08/09 08:09:33;;;;;;;4.45;4.05;;;;;;;28.85;67.98438;95004.43;;;;
2019/08/09 08:10:34;;;;;;;4.45;4.05;;;;;;;28.85;67.98438;95004.43;;;;
2019/08/09 08:11:35;;;;;;;4.45;4.05;;;;;;;28.85;67.98438;95004.43;;;;
2019/08/09 08:12:36;;;;;;;4.45;4.05;;;;;;;28.85;67.98438;95004.43;;;;
2019/08/09 08:13:37;;;;;;;4.45;4.05;;;;;;;28.85;67.98438;95004.43;;;;
2019/08/09 08:14:39;;;;;;;4.45;4.05;;;;;;;28.85;67.98438;95004.43;;;;
2019/08/09 08:15:40;;;;;;;4.45;4.05;;;;;;;28.85;67.98438;95004.43;;;;
2019/08/09 08:16:41;;;;;;;4.45;4.05;;;;;;;28.85;67.98438;95004.43;;;;
2019/08/09 08:17:42;;;;;;;4.45;4.05;;;;;;;28.85;67.98438;95004.43;;;;
2019/08/09 08:18:43;;;;;;;4.45;4.05;;;;;;;28.85;67.98438;95004.43;;;;
2019/08/09 08:19:45;;;;;;;4.45;4.05;;;;;;;28.85;67.98438;95004.43;;;;
2019/08/09 08:20:46;;;;;;;4.25;3.7;;;;;;;29.59;65.93359;94987.81;;;;
2019/08/09 08:21:47;;;;;;;4.25;3.7;;;;;;;29.59;65.93359;94987.81;;;;
2019/08/09 08:22:48;;;;;;;4.25;3.7;;;;;;;29.59;65.93359;94987.81;;;;
2019/08/09 08:23:49;;;;;;;4.25;3.7;;;;;;;29.59;65.93359;94987.81;;;;
2019/08/09 08:24:50;;;;;;;4.25;3.7;;;;;;;29.59;65.93359;94987.81;;;;
2019/08/09 08:25:52;;;;;;;4.25;3.7;;;;;;;29.59;65.93359;94987.81;;;;
2019/08/09 08:27:09;;;;;;;4.25;3.7;;;;;;;29.59;65.93359;94987.81;;;;
2019/08/09 08:28:11;;;;;;;4.25;3.7;;;;;;;29.59;65.93359;94987.81;;;;
2019/08/09 08:29:12;;;;;;;4.25;3.7;;;;;;;29.59;65.93359;94987.81;;;;
2019/08/09 08:30:13;;;;;;;4.25;3.7;;;;;;;29.59;65.93359;94987.81;;;;
2019/08/09 08:31:14;;;;;;;4.25;3.85;;;;;;;31.84;60.62793;94986.49;;;;
2019/08/09 08:32:16;;;;;;;4.25;3.85;;;;;;;31.84;60.62793;94986.49;;;;
2019/08/09 08:33:17;;;;;;;4.25;3.85;;;;;;;31.84;60.62793;94986.49;;;;
2019/08/09 08:34:18;;;;;;;4.25;3.85;;;;;;;31.84;60.62793;94986.49;;;;
2019/08/09 08:35:19;;;;;;;4.25;3.85;;;;;;;31.84;60.62793;94986.49;;;;
2019/08/09 08:36:21;;;;;;;4.25;3.85;;;;;;;31.84;60.62793;94986.49;;;;
2019/08/09 08:37:22;;;;;;;4.25;3.85;;;;;;;31.84;60.62793;94986.49;;;;
2019/08/09 08:38:23;;;;;;;4.25;3.85;;;;;;;31.84;60.62793;94986.49;;;;
2019/08/09 08:39:24;;;;;;;4.25;3.85;;;;;;;31.84;60.62793;94986.49;;;;
2019/08/09 08:40:25;;;;;;;4.25;3.85;;;;;;;31.84;60.62793;94986.49;;;;
2019/08/09 08:41:50;;;;;;;4.399999;3.8;;;;;;;35.62;52.04785;94993.05;;;;
2019/08/09 08:42:51;;;;;;;4.399999;3.8;;;;;;;35.62;52.04785;94993.05;;;;
2019/08/09 08:43:52;;;;;;;4.399999;3.8;;;;;;;35.62;52.04785;94993.05;;;;
2019/08/09 08:44:55;;;;;;;4.399999;3.8;;;;;;;35.62;52.04785;94993.05;;;;
2019/08/09 08:45:56;;;;;;;4.399999;3.8;;;;;;;35.62;52.04785;94993.05;;;;
2019/08/09 08:46:58;;;;;;;4.399999;3.8;;;;;;;35.62;52.04785;94993.05;;;;
2019/08/09 08:48:00;;;;;;;4.399999;3.8;;;;;;;35.62;52.04785;94993.05;;;;
2019/08/09 08:49:01;;;;;;;4.399999;3.8;;;;;;;35.62;52.04785;94993.05;;;;
2019/08/09 08:50:03;;;;;;;4.399999;3.8;;;;;;;35.62;52.04785;94993.05;;;;
2019/08/09 08:51:05;;;;;;;4.399999;3.8;;;;;;;35.62;52.04785;94993.05;;;;
2019/08/09 08:52:06;;;;;;;4.450001;3.95;;;;;;;38.47;46;94997.05;;;;
2019/08/09 08:53:07;;;;;;;4.450001;3.95;;;;;;;38.47;46;94997.05;;;;
2019/08/09 08:54:08;;;;;;;4.450001;3.95;;;;;;;38.47;46;94997.05;;;;
2019/08/09 08:55:10;;;;;;;4.450001;3.95;;;;;;;38.47;46;94997.05;;;;
2019/08/09 08:56:19;;;;;;;4.450001;3.95;;;;;;;38.47;46;94997.05;;;;
2019/08/09 08:57:20;;;;;;;4.450001;3.95;;;;;;;38.47;46;94997.05;;;;
2019/08/09 08:58:21;;;;;;;4.450001;3.95;;;;;;;38.47;46;94997.05;;;;
2019/08/09 08:59:22;;;;;;;4.450001;3.95;;;;;;;38.47;46;94997.05;;;;
2019/08/09 09:00:23;;;;;;;4.450001;3.95;;;;;;;38.47;46;94997.05;;;;
2019/08/09 09:01:55;;;;;;;4.450001;3.95;;;;;;;38.47;46;94997.05;;;;
2019/08/09 09:02:56;;;;;;;4.4;3.75;;;;;;;41.06;41.04395;95004.88;;;;
2019/08/09 09:03:57;;;;;;;4.4;3.75;;;;;;;41.06;41.04395;95004.88;;;;
2019/08/09 09:04:59;;;;;;;4.4;3.75;;;;;;;41.06;41.04395;95004.88;;;;
2019/08/09 09:06:00;;;;;;;4.4;3.75;;;;;;;41.06;41.04395;95004.88;;;;
2019/08/09 09:07:01;;;;;;;4.4;3.75;;;;;;;41.06;41.04395;95004.88;;;;
2019/08/09 09:08:03;;;;;;;4.4;3.75;;;;;;;41.06;41.04395;95004.88;;;;
2019/08/09 09:09:04;;;;;;;4.4;3.75;;;;;;;41.06;41.04395;95004.88;;;;
2019/08/09 09:10:06;;;;;;;4.4;3.75;;;;;;;41.06;41.04395;95004.88;;;;
2019/08/09 09:11:08;;;;;;;4.4;3.75;;;;;;;41.06;41.04395;95004.88;;;;
2019/08/09 09:12:10;;;;;;;4.4;3.75;;;;;;;41.06;41.04395;95004.88;;;;
2019/08/09 09:13:11;;;;;;;4.75;3.900001;;;;;;;42.98;36.27246;95013.17;;;;
2019/08/09 09:14:12;;;;;;;4.75;3.900001;;;;;;;42.98;36.27246;95013.17;;;;
2019/08/09 09:15:13;;;;;;;4.75;3.900001;;;;;;;42.98;36.27246;95013.17;;;;
2019/08/09 09:16:26;;;;;;;4.15;3.75;;;;;;;43.27;31.68359;95011.1;;;;
2019/08/09 09:17:27;;;;;;;4.15;3.75;;;;;;;43.27;31.68359;95011.1;;;;
2019/08/09 09:18:28;;;;;;;4.15;3.75;;;;;;;43.27;31.68359;95011.1;;;;
2019/08/09 09:19:29;;;;;;;4.15;3.75;;;;;;;43.27;31.68359;95011.1;;;;
2019/08/09 09:20:30;;;;;;;4.15;3.75;;;;;;;43.27;31.68359;95011.1;;;;
2019/08/09 09:22:05;;;;;;;4.15;3.75;;;;;;;43.27;31.68359;95011.1;;;;
2019/08/09 09:23:06;;;;;;;4.15;3.75;;;;;;;43.27;31.68359;95011.1;;;;
2019/08/09 09:24:07;;;;;;;4.15;3.75;;;;;;;43.27;31.68359;95011.1;;;;
2019/08/09 09:25:08;;;;;;;4.15;3.75;;;;;;;43.27;31.68359;95011.1;;;;
2019/08/09 09:26:10;;;;;;;4.15;3.75;;;;;;;43.27;31.68359;95011.1;;;;
2019/08/09 09:27:11;;;;;;;3.35;3.15;;;;;;;43.34;32.08398;95002.58;;;;
2019/08/09 09:28:12;;;;;;;3.35;3.15;;;;;;;43.34;32.08398;95002.58;;;;
2019/08/09 09:29:13;;;;;;;3.7;3.4;;;;;;;43.44;29.12891;95001.22;;;;
2019/08/09 09:30:15;;;;;;;3.7;3.4;;;;;;;43.44;29.12891;95001.22;;;;
2019/08/09 09:31:16;;;;;;;3.7;3.4;;;;;;;43.44;29.12891;95001.22;;;;
2019/08/09 09:32:17;;;;;;;3.95;3.3;;;;;;;43.46;26.98242;94996.09;;;;
2019/08/09 09:33:19;;;;;;;3.95;3.3;;;;;;;43.46;26.98242;94996.09;;;;
2019/08/09 09:34:20;;;;;;;3.750001;3.45;;;;;;;43.27;26.06055;95000.73;;;;
2019/08/09 09:35:21;;;;;;;3.750001;3.45;;;;;;;43.27;26.06055;95000.73;;;;
2019/08/09 09:36:22;;;;;;;3.750001;3.45;;;;;;;43.27;26.06055;95000.73;;;;
2019/08/09 09:37:23;;;;;;;3.95;3.55;;;;;;;43.46;25.87305;94998.94;;;;
2019/08/09 09:38:29;;;;;;;3.95;3.55;;;;;;;43.46;25.87305;94998.94;;;;
2019/08/09 09:39:36;;;;;;;3.65;3.35;;;;;;;43.95;24.96484;94993.87;;;;
2019/08/09 09:40:42;;;;;;;3.65;3.35;;;;;;;43.95;24.96484;94993.87;;;;
2019/08/09 09:41:46;;;;;;;3.65;3.35;;;;;;;43.95;24.96484;94993.87;;;;
2019/08/09 09:42:47;;;;;;;3.55;3.25;;;;;;;44.47;24.47656;94993.94;;;;
2019/08/09 09:43:49;;;;;;;3.55;3.25;;;;;;;44.47;24.47656;94993.94;;;;
2019/08/09 09:44:50;;;;;;;4.1;3.7;;;;;;;44.93;23.34082;94994.87;;;;
2019/08/09 09:45:51;;;;;;;4.1;3.7;;;;;;;44.93;23.34082;94994.87;;;;
2019/08/09 09:46:52;;;;;;;4.1;3.7;;;;;;;44.93;23.34082;94994.87;;;;
2019/08/09 09:47:53;;;;;;;3.8;3.5;;;;;;;45.27;22.59473;94994.8;;;;
2019/08/09 09:48:55;;;;;;;3.8;3.5;;;;;;;45.27;22.59473;94994.8;;;;
2019/08/09 09:49:56;;;;;;;3.8;3.5;;;;;;;45.27;22.59473;94994.8;;;;
2019/08/09 09:50:57;;;;;;;3.8;3.5;;;;;;;45.27;22.59473;94994.8;;;;
2019/08/09 09:52:03;;;;;;;3.8;3.5;;;;;;;45.27;22.59473;94994.8;;;;
2019/08/09 09:53:04;;;;;;;3.85;3.5;;;;;;;45.9;22.4248;94994.72;;;;
2019/08/09 10:02:24;;;;;;;3.8;3.5;;;;;;;46.6;21.03418;94994.79;;;;
2019/08/09 10:11:39;;;;;;;3.7;3.4;;;;;;;47.36;19.71094;94982.73;;;;
2019/08/09 10:21:04;;;;;;;3.7;3.4;;;;;;;47.59;19.69727;94981.63;;;;
2019/08/09 10:30:20;;;;;;;3.6;3.3;;;;;;;47.34;18.30664;94975.27;;;;
2019/08/09 10:39:35;;;;;;;3.4;3.1;;;;;;;46.92;18.99805;94975.53;;;;
2019/08/09 10:48:50;;;;;;;3.05;2.75;;;;;;;45.62;19.63867;94968.76;;;;
2019/08/09 10:58:05;;;;;;;3.3;3.1;;;;;;;42.62;22.98047;94972.83;;;;
2019/08/09 11:07:20;;;;;;;2.95;2.75;;;;;;;41.82;24.05859;94973.35;;;;
2019/08/09 11:16:36;;;;;;;3.5;3.2;;;;;;;42.84;22.62891;94964.48;;;;
2019/08/09 11:25:51;;;;;;;4.75;3.55;;;;;;;43.39;22.44531;94960.16;;;;
2019/08/09 11:35:06;;;;;;;4;3.3;;;;;;;43.54;21.79785;94953.75;;;;
2019/08/09 11:44:21;;;;;;;3.85;3.15;;;;;;;43.35;22.51367;94961.5;;;;
2019/08/09 11:53:36;;;;;;;3.3;3;;;;;;;43.54;23.14258;94951.31;;;;
2019/08/09 12:02:51;;;;;;;3.2;2.95;;;;;;;43.4;22.59766;94942.44;;;;
2019/08/09 12:12:07;;;;;;;3.1;2.8;;;;;;;43.25;22.71973;94945.98;;;;
2019/08/09 12:21:22;;;;;;;3.2;3;;;;;;;42.59;22.79199;94934.34;;;;
2019/08/09 12:30:37;;;;;;;3.7;2.8;;;;;;;41.83;23.95508;94920.4;;;;
2019/08/09 12:39:52;;;;;;;5.5;2.7;;;;;;;41.54;24.02051;94920.15;;;;
2019/08/09 12:49:07;;;;;;;3.9;2.55;;;;;;;41.42;25.45703;94913.55;;;;
2019/08/09 12:58:23;;;;;;;3.5;3;;;;;;;41.14;25.16309;94900.67;;;;
2019/08/09 13:07:47;;;;;;;2.85;2.65;;;;;;;41.41;25.50391;94896.37;;;;
2019/08/09 13:17:04;;;;;;;4.15;2.8;;;;;;;41.84;24.74707;94887.16;;;;
2019/08/09 13:26:19;;;;;;;3.1;2.8;;;;;;;42;26.03613;94878.64;;;;
2019/08/09 13:35:34;;;;;;;2.900001;2.6;;;;;;;42.45;25.00098;94862.75;;;;
2019/08/09 13:44:50;;;;;;;3;2.8;;;;;;;43.21;23.05664;94857.96;;;;
2019/08/09 13:54:05;;;;;;;2.95;2.75;;;;;;;43.94;22.33105;94861.32;;;;
2019/08/09 14:03:25;;;;;;;2.85;2.65;;;;;;;45.27;21.23242;94850.34;;;;
2019/08/09 14:12:40;;;;;;;2.6;2.4;;;;;;;45.82;20.74121;94848.83;;;;
2019/08/09 14:21:55;;;;;;;2.85;2.65;;;;;;;45.93;20.3457;94843.86;;;;
2019/08/09 14:31:10;;;;;;;2.8;2.6;;;;;;;45.82;20.11719;94828.45;;;;
2019/08/09 14:40:31;;;;;;;2.8;2.6;;;;;;;45.55;19.7998;94822.31;;;;
2019/08/09 14:49:46;;;;;;;2.5;2.4;;;;;;;45.18;19.72559;94815.69;;;;
2019/08/09 14:59:01;;;;;;;2.4;2.3;;;;;;;44.34;20.14746;94795.2;;;;
2019/08/09 15:08:16;;;;;;;2.45;2.25;;;;;;;43.8;20.3584;94786.64;;;;
2019/08/09 15:15:36;;;;;;;2.85;2.2;;;;;;;43.38;20.91309;94785.67;;;;
2019/08/09 15:24:51;;;;;;;2.2;2;;;;;;;42.85;21.69531;94782.79;;;;
2019/08/09 15:25:55;;;;;;;2.2;2.1;;;;;;;42.67;21.43066;94788.01;;;;
2019/08/09 15:26:56;;;;;;;2.2;2.1;;;;;;;42.67;21.43066;94788.01;;;;
2019/08/09 15:27:57;;;;;;;2.2;2.1;;;;;;;42.67;21.43066;94788.01;;;;
2019/08/09 15:28:58;;;;;;;2.5;2;;;;;;;42.46;21.54883;94769.81;;;;
2019/08/09 15:29:59;;;;;;;2.5;2;;;;;;;42.46;21.54883;94769.81;;;;
2019/08/09 15:31:00;;;;;;;3.45;2.3;;;;;;;42.24;21.45703;94768.22;;;;
2019/08/09 15:32:01;;;;;;;3.45;2.3;;;;;;;42.24;21.45703;94768.22;;;;
2019/08/09 15:33:03;;;;;;;3.45;2.3;;;;;;;42.24;21.45703;94768.22;;;;
2019/08/09 15:34:04;;;;;;;2.25;2.05;;;;;;;42.06;21.99707;94761.91;;;;
2019/08/09 15:35:07;;;;;;;2.25;2.05;;;;;;;42.06;21.99707;94761.91;;;;
2019/08/09 15:36:08;;;;;;;2.25;2.05;;;;;;;42.06;21.99707;94761.91;;;;
2019/08/09 15:37:09;;;;;;;2.1;2;;;;;;;41.86;21.94043;94759.44;;;;
2019/08/09 15:38:10;;;;;;;2.1;2;;;;;;;41.86;21.94043;94759.44;;;;
2019/08/09 15:39:12;;;;;;;2;1.8;;;;;;;41.65;21.75586;94760.06;;;;
2019/08/09 15:40:13;;;;;;;2;1.8;;;;;;;41.65;21.75586;94760.06;;;;
2019/08/09 15:41:14;;;;;;;2;1.8;;;;;;;41.65;21.75586;94760.06;;;;
2019/08/09 15:42:15;;;;;;;2.1;1.9;;;;;;;41.44;22.04883;94772.13;;;;
2019/08/09 15:43:16;;;;;;;2.1;1.9;;;;;;;41.44;22.04883;94772.13;;;;
2019/08/09 15:44:17;;;;;;;2.3;2.1;;;;;;;41.22;22.09668;94766.85;;;;
2019/08/09 15:45:19;;;;;;;2.3;2.1;;;;;;;41.22;22.09668;94766.85;;;;
2019/08/09 15:46:20;;;;;;;2.3;2.1;;;;;;;41.22;22.09668;94766.85;;;;
2019/08/09 15:47:21;;;;;;;4.25;2.1;;;;;;;41;22.78418;94761.16;;;;
2019/08/09 15:48:22;;;;;;;4.25;2.1;;;;;;;41;22.78418;94761.16;;;;
2019/08/09 15:49:23;;;;;;;4.25;2.1;;;;;;;41;22.78418;94761.16;;;;
2019/08/09 15:50:24;;;;;;;2;1.9;;;;;;;40.76;23.2373;94764.78;;;;
2019/08/09 15:51:26;;;;;;;2;1.9;;;;;;;40.76;23.2373;94764.78;;;;
2019/08/09 15:52:27;;;;;;;2;1.9;;;;;;;40.45;23.05859;94759.84;;;;
2019/08/09 15:53:28;;;;;;;2;1.9;;;;;;;40.45;23.05859;94759.84;;;;
2019/08/09 15:54:29;;;;;;;2;1.9;;;;;;;40.45;23.05859;94759.84;;;;
2019/08/09 15:55:31;;;;;;;2.4;2.1;;;;;;;40.13;23.19434;94747.22;;;;
2019/08/09 15:56:32;;;;;;;2.4;2.1;;;;;;;40.13;23.19434;94747.22;;;;
2019/08/09 15:57:33;;;;;;;2.3;2;;;;;;;39.89;23.58789;94751.54;;;;
2019/08/09 15:58:34;;;;;;;2.3;2;;;;;;;39.89;23.58789;94751.54;;;;
2019/08/09 15:59:35;;;;;;;2.3;2;;;;;;;39.89;23.58789;94751.54;;;;
2019/08/09 16:00:36;;;;;;;2.95;2;;;;;;;39.7;23.96094;94745.7;;;;
2019/08/09 16:01:37;;;;;;;2.95;2;;;;;;;39.7;23.96094;94745.7;;;;
2019/08/09 16:02:39;;;;;;;2.95;2;;;;;;;39.7;23.96094;94745.7;;;;
2019/08/09 16:03:40;;;;;;;2.2;2;;;;;;;39.54;24.24219;94745.4;;;;
2019/08/09 16:04:41;;;;;;;2.2;2;;;;;;;39.54;24.24219;94745.4;;;;
2019/08/09 16:05:42;;;;;;;2.35;2.1;;;;;;;39.41;24.40918;94745.04;;;;
2019/08/09 16:06:44;;;;;;;2.35;2.1;;;;;;;39.41;24.40918;94745.04;;;;
2019/08/09 16:07:45;;;;;;;2.35;2.1;;;;;;;39.41;24.40918;94745.04;;;;
2019/08/09 16:08:46;;;;;;;2.2;2;;;;;;;39.27;24.44824;94746.74;;;;
2019/08/09 16:09:47;;;;;;;2.2;2;;;;;;;39.27;24.44824;94746.74;;;;
2019/08/09 16:10:48;;;;;;;2.4;2.2;;;;;;;39.14;24.56836;94744.76;;;;
2019/08/09 16:11:49;;;;;;;2.4;2.2;;;;;;;39.14;24.56836;94744.76;;;;
2019/08/09 16:12:50;;;;;;;2.4;2.2;;;;;;;39.14;24.56836;94744.76;;;;
2019/08/09 16:13:52;;;;;;;2.65;2.1;;;;;;;39.04;24.64453;94747.52;;;;